Schulenburg, TX (78956)

2:46 AM CST on December 19, 2014 (GMT -0600)
MesoWest SHLNBG TX US UPR | Change Station
CLOSE
Current Station
Personal Weather Station
Location: Schulenburg, TX
Elevation: 268 ft
Nearby Weather Stations

Elev 268 ft 29.68 °N, 96.94 °W | Updated 2 hours ago

Overcast
Overcast
58 °F
Feels Like 58 °F
N
Wind Variable Wind from North
Gusts 0.0 mph

Today
High -- | Low -- °F
--% Chance of Precip.
Yesterday
High -- | Low -- °F
Precip. -- in
7:17 AM 5:32 PM
Waning Crescent, 9% visible
Pressure 30.02 in
Visibility 10.0 miles
Clouds Overcast 600 ft
Dew Point Not available.
Humidity Not available.
Rainfall -999.00 in
Snow Depth Not available.
UV 0 out of 12
Pollen 6.60 out of 12
Air Quality Not available.
Flu Activity Not available.
METAR K3T5 190830Z AUTO 36006KT 10SM -RA OVC006 12/12 A3002 RMK AO2 LTG DSNT NW P0009 T01230119

More Conditions Fewer Conditions

Pressure 30.02 in
Visibility 10.0 miles
Clouds Overcast 600 ft
Dew Point Not available.
Humidity Not available.
Rainfall -999.00 in
Snow Depth Not available.
UV 0 out of 12
Pollen 6.60 out of 12
Air Quality Not available.
Flu Activity Not available.
METAR K3T5 190830Z AUTO 36006KT 10SM -RA OVC006 12/12 A3002 RMK AO2 LTG DSNT NW P0009 T01230119

More Conditions Fewer Conditions

Nowcast | as of 1:46 am CST on December 19, 2014

Through 4 am...areas of light rain...rain showers and isolated thunderstorms will continue to develop and move north across south central Texas. Greatest chance of thunderstorm activity will be across Travis and Williamson counties as well as new activity developing into Karnes...DeWitt...and Gonzales counties. Rainfall amounts will range from one tenth to three quarters of an inch. Locally heavier amounts to near one inch are possible in stronger thunderstorms. The strongest of storms may also be able to produce small pea to dime sized hail but overall risk is low. Greatest rainfall totals will be located along and southeast of a Pawnee to Gonzales to Lexington line through the early morning hours.

×

10-Day Weather Forecast

Almanac

Astronomy

Dec. 19, 2014 Rise Set
Actual Time
Civil Twilight
Nautical Twilight
Astronomical Twilight
Moon
Length of Visible Light
Length of Day
Tomorrow will be .
, % of the Moon is Illuminated

Today's Extremes

State Highs State Lows

Community

WunderPhotos

Upload Photos

1,778,953 photos uploaded!

WunderBlogs® & News

Nearby

Air Quality

  Air Quality AQ Index Pollutant
Not available.

Snow Depth

Station Depth Elevation

Earthquake Activity

City Distance Mag. Time & Date
Minimum magnitude displayed is 2.5.

Coastal Water Temperatures

Place Temperature

Nearby Weather Stations